Minerva Grace — SVBN7 — position and weather

sailwx.info

Track history (hours):
 
Tides and Currents Weather Stations Pressure Air Temp Water Temp Dewpoint Dewpoint Depression Visibility Wind Speed Wind Dir Waves Ship Positions

Minerva Grace

Last reported at 2015-May-03 04:16 UTC. Time now 2015-May-06 14:29 UTC.
Position N 54°00' E 004°38'.

Length 183 m; draft 8.2 m.

Type: Tanker. MMSI: 241193000.

Date/timePositionNaut miles runAvg speedWind from/ knotsBaromVisibWave heightAir tempDewpointWater temp
2015-May-03 04:16N 54°00' E 004°38'77 8.7
2015-May-02 19:23N 52°58' E 003°22'34 8.9
2015-May-02 15:32N 52°25' E 003°10'1111.0
2015-May-02 14:32N 52°16' E 003°20'1410.6
2015-May-02 13:14N 52°07' E 003°37'710.4
2015-May-02 12:33N 52°04' E 003°48'1110.8
2015-May-02 11:34N 51°59' E 004°03'3 3.3
2015-May-02 10:32N 51°57' E 004°08'0 0.0
2015-May-02 09:33N 51°57' E 004°08'0 0.0
2015-May-02 08:34N 51°57' E 004°08'0 0.0
2015-May-02 07:33N 51°57' E 004°08'0 0.0
2015-May-02 06:33N 51°57' E 004°08'1 0.6
2015-May-02 05:34N 51°58' E 004°08'3 3.2
2015-May-02 04:34N 51°55' E 004°12'0 0.0
2015-May-02 03:33N 51°55' E 004°12'0 0.0
2015-May-02 02:33N 51°55' E 004°12'0 0.0
2015-May-02 01:34N 51°55' E 004°12'0 0.0
2015-May-02 00:34N 51°55' E 004°12'0 0.0
2015-May-01 23:34N 51°55' E 004°12'0 0.0
2015-May-01 22:34N 51°55' E 004°12'0 0.0
2015-May-01 21:34N 51°55' E 004°12'0 0.0
2015-May-01 20:34N 51°55' E 004°12'0 0.0
2015-May-01 19:34N 51°55' E 004°12'0 0.0
2015-May-01 18:34N 51°55' E 004°12'0 0.0
2015-May-01 17:33N 51°55' E 004°12'0 0.0
2015-May-01 16:33N 51°55' E 004°12'0 0.0
2015-May-01 15:34N 51°55' E 004°12'0 0.0
2015-May-01 14:34N 51°55' E 004°12'0 0.0
2015-May-01 13:34N 51°55' E 004°12'0 0.0
2015-May-01 12:34N 51°55' E 004°12'0 0.0
2015-May-01 11:34N 51°55' E 004°12'0 0.0
2015-May-01 10:34N 51°55' E 004°12'0 0.0
2015-May-01 09:33N 51°55' E 004°12'0 0.0
2015-May-01 08:33N 51°55' E 004°12'0 0.0
2015-May-01 07:34N 51°55' E 004°12'0 0.0
2015-May-01 06:34N 51°55' E 004°12'0 0.0
2015-May-01 05:34N 51°55' E 004°12'0 0.0
2015-May-01 04:34N 51°55' E 004°12'0 0.0
2015-May-01 03:34N 51°55' E 004°12'0 0.0
2015-May-01 02:34N 51°55' E 004°12'0 0.0
2015-May-01 01:34N 51°55' E 004°12'0 0.0
2015-May-01 00:34N 51°55' E 004°12'0 0.0
2015-Apr-30 23:33N 51°55' E 004°12'0 0.0
2015-Apr-30 22:34N 51°55' E 004°12'0 0.0
2015-Apr-30 21:33N 51°55' E 004°12'0 0.0
2015-Apr-30 20:33N 51°55' E 004°12'0 0.0
2015-Apr-30 19:34N 51°55' E 004°12'0 0.0
2015-Apr-30 18:34N 51°55' E 004°12'0 0.0
2015-Apr-30 17:34N 51°55' E 004°12'0 0.0
2015-Apr-30 16:34N 51°55' E 004°12'0 0.0
2015-Apr-30 15:33N 51°55' E 004°12'0 0.0
2015-Apr-30 14:33N 51°55' E 004°12'0 0.0
2015-Apr-30 13:33N 51°55' E 004°12'0 0.0
2015-Apr-30 12:34N 51°55' E 004°12'0 0.0
2015-Apr-30 11:34N 51°55' E 004°12'0 0.0
2015-Apr-30 10:33N 51°55' E 004°12'0 0.0
2015-Apr-30 09:34N 51°55' E 004°12'0 0.0
2015-Apr-30 08:34N 51°55' E 004°12'0 0.0
2015-Apr-30 07:34N 51°55' E 004°12'0 0.0
2015-Apr-30 06:34N 51°55' E 004°12'0 0.0
2015-Apr-30 05:34N 51°55' E 004°12'0 0.0
2015-Apr-30 04:12N 51°55' E 004°12'2 3.1
2015-Apr-30 03:34N 51°57' E 004°10'9 9.1
2015-Apr-30 02:33N 52°00' E 003°56'1110.2
2015-Apr-30 01:31N 51°58' E 003°39'6 5.9
2015-Apr-30 00:30N 51°55' E 003°31'0 0.0
2015-Apr-29 23:18N 51°55' E 003°31'0 0.0
2015-Apr-29 21:30N 51°55' E 003°31'0 0.1
2015-Apr-29 20:09N 51°55' E 003°31'0 0.1
2015-Apr-29 19:33N 51°55' E 003°31'0 0.1
2015-Apr-29 18:24N 51°55' E 003°31'0 0.0
2015-Apr-29 17:30N 51°55' E 003°31'0 0.1
2015-Apr-29 16:33N 51°55' E 003°31'0 0.0
2015-Apr-29 15:27N 51°55' E 003°31'0 0.0
2015-Apr-29 14:03N 51°55' E 003°31'0 0.0
2015-Apr-29 13:27N 51°55' E 003°31'0 0.0
2015-Apr-29 12:33N 51°55' E 003°31'0 0.0
2015-Apr-29 11:33N 51°55' E 003°31'0 0.0
2015-Apr-29 10:18N 51°55' E 003°31'0 0.0
2015-Apr-29 09:33N 51°55' E 003°31'0 0.0
2015-Apr-29 08:33N 51°55' E 003°31'0 0.2
2015-Apr-29 07:33N 51°55' E 003°31'0 0.1
2015-Apr-29 06:31N 51°55' E 003°31'1 1.2
2015-Apr-29 05:22N 51°55' E 003°28'20 9.9
2015-Apr-29 03:18N 51°50' E 002°56'1411.2
2015-Apr-29 02:05N 51°45' E 002°36'611.7
2015-Apr-29 01:32N 51°40' E 002°29'1212.1
2015-Apr-29 00:33N 51°31' E 002°17'1211.6
2015-Apr-28 23:33N 51°22' E 002°07'1110.8
2015-Apr-28 22:33N 51°12' E 002°00'1312.9
2015-Apr-28 21:33N 51°05' E 001°43'1413.7
2015-Apr-28 20:34N 50°55' E 001°27'3112.4
2015-Apr-28 18:04N 50°30' E 000°59'2212.9
2015-Apr-28 16:22N 50°24' E 000°25'  
2015-Apr-25 12:17N 39°11' W 009°57'912.4
2015-Apr-25 11:33N 39°02' W 009°57'1211.9
2015-Apr-25 10:33N 38°50' W 009°57'1212.1
2015-Apr-25 09:33N 38°38' W 009°56'1212.0
2015-Apr-25 08:33N 38°27' W 009°53'1312.0
2015-Apr-25 07:30N 38°14' W 009°49'1311.8
2015-Apr-25 06:26N 38°02' W 009°45'1112.1
2015-Apr-25 05:33N 37°52' W 009°42'1212.1
2015-Apr-25 04:33N 37°40' W 009°39'1411.9
2015-Apr-25 03:24N 37°27' W 009°35'7310.5
2015-Apr-24 20:28N 36°32' W 008°35'15311.8
2015-Apr-24 07:33N 35°59' W 005°30'1010.3
2015-Apr-24 06:33N 36°02' W 005°18'11312.3
2015-Apr-23 21:21N 36°20' W 002°60'1012.6
2015-Apr-23 20:33N 36°21' W 002°47'1212.5
2015-Apr-23 19:33N 36°23' W 002°32'1212.1
2015-Apr-23 18:33N 36°25' W 002°17'1411.8
2015-Apr-23 17:24N 36°32' W 002°02'1612.2
2015-Apr-23 16:03N 36°42' W 001°47'612.0
2015-Apr-23 15:33N 36°46' W 001°41'1212.1
2015-Apr-23 14:33N 36°55' W 001°30'1212.2
2015-Apr-23 13:32N 37°03' W 001°18'1412.2
2015-Apr-23 12:23N 37°12' W 001°05'1012.1
2015-Apr-23 11:33N 37°18' W 000°55'1212.0
2015-Apr-23 10:33N 37°26' W 000°44'1212.3
2015-Apr-23 09:33N 37°35' W 000°33'1212.2
2015-Apr-23 08:33N 37°45' W 000°24'1212.3
2015-Apr-23 07:33N 37°55' W 000°16'1212.1
2015-Apr-23 06:33N 38°06' W 000°07'1312.5
2015-Apr-23 05:33N 38°16' E 000°01'1211.9
2015-Apr-23 04:33N 38°26' E 000°10'  
Track history (hours):
 
Tides and Currents Weather Stations Pressure Air Temp Water Temp Dewpoint Dewpoint Depression Visibility Wind Speed Wind Dir Waves Ship Positions

Minerva Grace

Last reported at 2015-May-03 04:16 UTC. Time now 2015-May-06 14:29 UTC.
Position N 54°00' E 004°38'.

Length 183 m; draft 8.2 m.

Type: Tanker. MMSI: 241193000.

Date/timePositionNaut miles runAvg speedWind from/ knotsBaromVisibWave heightAir tempDewpointWater temp
2015-May-03 04:16N 54°00' E 004°38'77 8.7
2015-May-02 19:23N 52°58' E 003°22'34 8.9
2015-May-02 15:32N 52°25' E 003°10'1111.0
2015-May-02 14:32N 52°16' E 003°20'1410.6
2015-May-02 13:14N 52°07' E 003°37'710.4
2015-May-02 12:33N 52°04' E 003°48'1110.8
2015-May-02 11:34N 51°59' E 004°03'3 3.3
2015-May-02 10:32N 51°57' E 004°08'0 0.0
2015-May-02 09:33N 51°57' E 004°08'0 0.0
2015-May-02 08:34N 51°57' E 004°08'0 0.0
2015-May-02 07:33N 51°57' E 004°08'0 0.0
2015-May-02 06:33N 51°57' E 004°08'1 0.6
2015-May-02 05:34N 51°58' E 004°08'3 3.2
2015-May-02 04:34N 51°55' E 004°12'0 0.0
2015-May-02 03:33N 51°55' E 004°12'0 0.0
2015-May-02 02:33N 51°55' E 004°12'0 0.0
2015-May-02 01:34N 51°55' E 004°12'0 0.0
2015-May-02 00:34N 51°55' E 004°12'0 0.0
2015-May-01 23:34N 51°55' E 004°12'0 0.0
2015-May-01 22:34N 51°55' E 004°12'0 0.0
2015-May-01 21:34N 51°55' E 004°12'0 0.0
2015-May-01 20:34N 51°55' E 004°12'0 0.0
2015-May-01 19:34N 51°55' E 004°12'0 0.0
2015-May-01 18:34N 51°55' E 004°12'0 0.0
2015-May-01 17:33N 51°55' E 004°12'0 0.0
2015-May-01 16:33N 51°55' E 004°12'0 0.0
2015-May-01 15:34N 51°55' E 004°12'0 0.0
2015-May-01 14:34N 51°55' E 004°12'0 0.0
2015-May-01 13:34N 51°55' E 004°12'0 0.0
2015-May-01 12:34N 51°55' E 004°12'0 0.0
2015-May-01 11:34N 51°55' E 004°12'0 0.0
2015-May-01 10:34N 51°55' E 004°12'0 0.0
2015-May-01 09:33N 51°55' E 004°12'0 0.0
2015-May-01 08:33N 51°55' E 004°12'0 0.0
2015-May-01 07:34N 51°55' E 004°12'0 0.0
2015-May-01 06:34N 51°55' E 004°12'0 0.0
2015-May-01 05:34N 51°55' E 004°12'0 0.0
2015-May-01 04:34N 51°55' E 004°12'0 0.0
2015-May-01 03:34N 51°55' E 004°12'0 0.0
2015-May-01 02:34N 51°55' E 004°12'0 0.0
2015-May-01 01:34N 51°55' E 004°12'0 0.0
2015-May-01 00:34N 51°55' E 004°12'0 0.0
2015-Apr-30 23:33N 51°55' E 004°12'0 0.0
2015-Apr-30 22:34N 51°55' E 004°12'0 0.0
2015-Apr-30 21:33N 51°55' E 004°12'0 0.0
2015-Apr-30 20:33N 51°55' E 004°12'0 0.0
2015-Apr-30 19:34N 51°55' E 004°12'0 0.0
2015-Apr-30 18:34N 51°55' E 004°12'0 0.0
2015-Apr-30 17:34N 51°55' E 004°12'0 0.0
2015-Apr-30 16:34N 51°55' E 004°12'0 0.0
2015-Apr-30 15:33N 51°55' E 004°12'0 0.0
2015-Apr-30 14:33N 51°55' E 004°12'0 0.0
2015-Apr-30 13:33N 51°55' E 004°12'0 0.0
2015-Apr-30 12:34N 51°55' E 004°12'0 0.0
2015-Apr-30 11:34N 51°55' E 004°12'0 0.0
2015-Apr-30 10:33N 51°55' E 004°12'0 0.0
2015-Apr-30 09:34N 51°55' E 004°12'0 0.0
2015-Apr-30 08:34N 51°55' E 004°12'0 0.0
2015-Apr-30 07:34N 51°55' E 004°12'0 0.0
2015-Apr-30 06:34N 51°55' E 004°12'0 0.0
2015-Apr-30 05:34N 51°55' E 004°12'0 0.0
2015-Apr-30 04:12N 51°55' E 004°12'2 3.1
2015-Apr-30 03:34N 51°57' E 004°10'9 9.1
2015-Apr-30 02:33N 52°00' E 003°56'1110.2
2015-Apr-30 01:31N 51°58' E 003°39'6 5.9
2015-Apr-30 00:30N 51°55' E 003°31'0 0.0
2015-Apr-29 23:18N 51°55' E 003°31'0 0.0
2015-Apr-29 21:30N 51°55' E 003°31'0 0.1
2015-Apr-29 20:09N 51°55' E 003°31'0 0.1
2015-Apr-29 19:33N 51°55' E 003°31'0 0.1
2015-Apr-29 18:24N 51°55' E 003°31'0 0.0
2015-Apr-29 17:30N 51°55' E 003°31'0 0.1
2015-Apr-29 16:33N 51°55' E 003°31'0 0.0
2015-Apr-29 15:27N 51°55' E 003°31'0 0.0
2015-Apr-29 14:03N 51°55' E 003°31'0 0.0
2015-Apr-29 13:27N 51°55' E 003°31'0 0.0
2015-Apr-29 12:33N 51°55' E 003°31'0 0.0
2015-Apr-29 11:33N 51°55' E 003°31'0 0.0
2015-Apr-29 10:18N 51°55' E 003°31'0 0.0
2015-Apr-29 09:33N 51°55' E 003°31'0 0.0
2015-Apr-29 08:33N 51°55' E 003°31'0 0.2
2015-Apr-29 07:33N 51°55' E 003°31'0 0.1
2015-Apr-29 06:31N 51°55' E 003°31'1 1.2
2015-Apr-29 05:22N 51°55' E 003°28'20 9.9
2015-Apr-29 03:18N 51°50' E 002°56'1411.2
2015-Apr-29 02:05N 51°45' E 002°36'611.7
2015-Apr-29 01:32N 51°40' E 002°29'1212.1
2015-Apr-29 00:33N 51°31' E 002°17'1211.6
2015-Apr-28 23:33N 51°22' E 002°07'1110.8
2015-Apr-28 22:33N 51°12' E 002°00'1312.9
2015-Apr-28 21:33N 51°05' E 001°43'1413.7
2015-Apr-28 20:34N 50°55' E 001°27'3112.4
2015-Apr-28 18:04N 50°30' E 000°59'2212.9
2015-Apr-28 16:22N 50°24' E 000°25'  
2015-Apr-25 12:17N 39°11' W 009°57'912.4
2015-Apr-25 11:33N 39°02' W 009°57'1211.9
2015-Apr-25 10:33N 38°50' W 009°57'1212.1
2015-Apr-25 09:33N 38°38' W 009°56'1212.0
2015-Apr-25 08:33N 38°27' W 009°53'1312.0
2015-Apr-25 07:30N 38°14' W 009°49'1311.8
2015-Apr-25 06:26N 38°02' W 009°45'1112.1
2015-Apr-25 05:33N 37°52' W 009°42'1212.1
2015-Apr-25 04:33N 37°40' W 009°39'1411.9
2015-Apr-25 03:24N 37°27' W 009°35'7310.5
2015-Apr-24 20:28N 36°32' W 008°35'15311.8
2015-Apr-24 07:33N 35°59' W 005°30'1010.3
2015-Apr-24 06:33N 36°02' W 005°18'11312.3
2015-Apr-23 21:21N 36°20' W 002°60'1012.6
2015-Apr-23 20:33N 36°21' W 002°47'1212.5
2015-Apr-23 19:33N 36°23' W 002°32'1212.1
2015-Apr-23 18:33N 36°25' W 002°17'1411.8
2015-Apr-23 17:24N 36°32' W 002°02'1612.2
2015-Apr-23 16:03N 36°42' W 001°47'612.0
2015-Apr-23 15:33N 36°46' W 001°41'1212.1
2015-Apr-23 14:33N 36°55' W 001°30'1212.2
2015-Apr-23 13:32N 37°03' W 001°18'1412.2
2015-Apr-23 12:23N 37°12' W 001°05'1012.1
2015-Apr-23 11:33N 37°18' W 000°55'1212.0
2015-Apr-23 10:33N 37°26' W 000°44'1212.3
2015-Apr-23 09:33N 37°35' W 000°33'1212.2
2015-Apr-23 08:33N 37°45' W 000°24'1212.3
2015-Apr-23 07:33N 37°55' W 000°16'1212.1
2015-Apr-23 06:33N 38°06' W 000°07'1312.5
2015-Apr-23 05:33N 38°16' E 000°01'1211.9
2015-Apr-23 04:33N 38°26' E 000°10'  

Dump ship's entire track history